createdAt,value
2022-07-30T00:02:13.315Z,101113.66
2022-07-30T00:04:41.341Z,101107.69
2022-07-30T00:07:09.624Z,101116.88
2022-07-30T00:09:37.493Z,101118.63
2022-07-30T00:12:08.271Z,101121.34
2022-07-30T00:14:37.018Z,101117.84
2022-07-30T00:17:06.301Z,101113.53
2022-07-30T00:19:35.538Z,101119.75
2022-07-30T00:22:04.031Z,101120.91
2022-07-30T00:24:31.991Z,101118.91
2022-07-30T00:27:00.194Z,101119.00
2022-07-30T00:29:30.846Z,101118.00
2022-07-30T00:31:58.801Z,101123.00
2022-07-30T00:34:26.848Z,101112.44
2022-07-30T00:36:54.859Z,101117.00
2022-07-30T00:39:22.849Z,101109.75
2022-07-30T00:42:03.101Z,101114.06
2022-07-30T00:44:32.537Z,101106.88
2022-07-30T00:47:00.890Z,101121.03
2022-07-30T00:49:29.128Z,101120.13
2022-07-30T00:51:57.357Z,101115.50
2022-07-30T00:54:25.406Z,101112.91
2022-07-30T00:56:53.598Z,101106.00
2022-07-30T00:59:22.231Z,101108.06
2022-07-30T01:01:52.205Z,101106.31
2022-07-30T01:04:20.155Z,101104.56
2022-07-30T01:06:48.173Z,101102.13
2022-07-30T01:09:16.183Z,101113.19
2022-07-30T01:11:44.849Z,101105.03
2022-07-30T01:14:13.568Z,101104.88
2022-07-30T01:16:43.914Z,101106.13
2022-07-30T01:19:40.241Z,101111.31
2022-07-30T01:22:35.602Z,101107.00
2022-07-30T01:25:15.168Z,101096.34
2022-07-30T01:27:49.710Z,101106.00
2022-07-30T01:30:24.292Z,101111.16
2022-07-30T01:32:55.427Z,101104.31
2022-07-30T01:35:26.624Z,101096.25
2022-07-30T01:37:57.329Z,101108.94
2022-07-30T01:40:28.843Z,101102.47
2022-07-30T01:43:01.577Z,101100.34
2022-07-30T01:45:35.702Z,101107.97
2022-07-30T01:48:13.243Z,101104.31
2022-07-30T01:50:46.700Z,101101.38
2022-07-30T01:53:18.890Z,101099.56
2022-07-30T01:55:48.456Z,101101.78
2022-07-30T01:58:22.215Z,101097.25
2022-07-30T02:00:52.393Z,101093.63
2022-07-30T02:03:21.984Z,101097.44
2022-07-30T02:05:56.996Z,101098.88
2022-07-30T02:08:37.420Z,101104.06
2022-07-30T02:11:09.510Z,101108.81
2022-07-30T02:13:48.766Z,101112.97
2022-07-30T02:16:23.694Z,101111.72
2022-07-30T02:19:04.365Z,101110.34
2022-07-30T02:21:41.341Z,101097.06
2022-07-30T02:24:25.390Z,101100.25
2022-07-30T02:27:00.940Z,101102.28
2022-07-30T02:29:34.262Z,101101.78
2022-07-30T02:32:06.722Z,101099.50
2022-07-30T02:34:39.939Z,101098.97
2022-07-30T02:37:11.427Z,101090.59
2022-07-30T02:39:42.845Z,101092.34
2022-07-30T02:42:13.902Z,101090.78
2022-07-30T02:44:45.822Z,101082.38
2022-07-30T02:47:16.490Z,101087.00
2022-07-30T02:49:48.256Z,101090.03
2022-07-30T02:52:19.602Z,101090.53
2022-07-30T02:54:51.500Z,101098.16
2022-07-30T02:57:22.459Z,101087.69
2022-07-30T02:59:55.264Z,101084.66
2022-07-30T03:02:25.886Z,101085.06
2022-07-30T03:05:00.897Z,101083.25
2022-07-30T03:07:30.702Z,101082.94
2022-07-30T03:10:02.031Z,101079.97
2022-07-30T03:12:32.839Z,101080.97
2022-07-30T03:15:02.367Z,101088.16
2022-07-30T03:17:38.537Z,101092.19
2022-07-30T03:20:12.134Z,101096.44
2022-07-30T03:22:47.090Z,101094.91
2022-07-30T03:25:20.120Z,101100.25
2022-07-30T03:27:50.118Z,101101.38
2022-07-30T03:30:19.939Z,101102.19
2022-07-30T03:32:48.997Z,101101.09
2022-07-30T03:35:18.221Z,101095.09
2022-07-30T03:37:50.531Z,101095.09
2022-07-30T03:40:19.582Z,101104.00
2022-07-30T03:42:48.267Z,101108.66
2022-07-30T03:45:18.160Z,101105.94
2022-07-30T03:47:49.057Z,101113.34
2022-07-30T03:50:17.435Z,101107.50
2022-07-30T03:52:46.362Z,101110.38
2022-07-30T03:55:15.043Z,101122.47
2022-07-30T03:57:43.211Z,101124.34
2022-07-30T04:00:17.223Z,101121.66
2022-07-30T04:02:47.743Z,101125.22
2022-07-30T04:05:17.434Z,101120.91
2022-07-30T04:07:45.661Z,101120.66
2022-07-30T04:10:16.439Z,101115.47
2022-07-30T04:12:44.535Z,101121.75
2022-07-30T04:16:16.700Z,101122.19
2022-07-30T04:18:05.492Z,101119.00
2022-07-30T04:20:42.787Z,101127.19
2022-07-30T04:23:12.293Z,101133.78
2022-07-30T04:25:41.768Z,101135.13
2022-07-30T04:28:12.811Z,101139.47
2022-07-30T04:30:42.500Z,101144.91
2022-07-30T04:33:11.951Z,101145.13
2022-07-30T04:35:51.538Z,101141.13
2022-07-30T04:38:21.497Z,101151.34
2022-07-30T04:40:50.284Z,101147.09
2022-07-30T04:43:18.492Z,101148.47
2022-07-30T04:45:46.798Z,101147.13
2022-07-30T04:48:16.171Z,101153.63
2022-07-30T04:50:50.018Z,101156.88
2022-07-30T04:53:19.703Z,101145.94
2022-07-30T04:55:50.437Z,101151.03
2022-07-30T04:58:22.093Z,101152.06
2022-07-30T05:00:52.259Z,101154.75
2022-07-30T05:03:24.576Z,101153.84
2022-07-30T05:05:57.477Z,101152.13
2022-07-30T05:08:26.691Z,101157.00
2022-07-30T05:10:55.344Z,101150.56
2022-07-30T05:13:23.507Z,101157.59
2022-07-30T05:16:02.961Z,101151.22
2022-07-30T05:18:32.452Z,101150.63
2022-07-30T05:21:00.314Z,101154.88
2022-07-30T05:23:28.328Z,101147.22
2022-07-30T05:25:56.472Z,101146.16
2022-07-30T05:28:26.651Z,101151.97
2022-07-30T05:30:55.782Z,101148.97
2022-07-30T05:33:38.787Z,101149.53
2022-07-30T05:36:11.704Z,101143.28
2022-07-30T05:38:39.773Z,101138.94
2022-07-30T05:41:31.720Z,101134.16
2022-07-30T05:43:56.254Z,101139.69
2022-07-30T05:46:25.135Z,101131.19
2022-07-30T05:48:53.551Z,101131.00
2022-07-30T05:51:23.052Z,101134.16
2022-07-30T05:53:51.827Z,101147.25
2022-07-30T05:56:19.953Z,101145.31
2022-07-30T05:58:47.912Z,101146.09
2022-07-30T06:01:15.862Z,101144.59
2022-07-30T06:03:43.796Z,101142.09
2022-07-30T06:06:11.755Z,101142.72
2022-07-30T06:08:40.987Z,101149.63
2022-07-30T06:11:09.848Z,101147.91
2022-07-30T06:13:38.401Z,101147.00
2022-07-30T06:16:06.796Z,101161.06
2022-07-30T06:18:34.786Z,101159.19
2022-07-30T06:21:02.790Z,101152.31
2022-07-30T06:23:30.681Z,101153.91
2022-07-30T06:26:00.013Z,101154.97
2022-07-30T06:28:37.693Z,101150.31
2022-07-30T06:31:06.674Z,101159.53
2022-07-30T06:33:35.308Z,101153.31
2022-07-30T06:36:03.366Z,101154.63
2022-07-30T06:38:31.736Z,101170.25
2022-07-30T06:41:02.811Z,101167.47
2022-07-30T06:43:32.459Z,101165.19
2022-07-30T06:46:00.784Z,101161.56
2022-07-30T06:48:30.945Z,101168.97
2022-07-30T06:50:58.913Z,101166.94
2022-07-30T06:53:26.988Z,101171.69
2022-07-30T06:56:00.249Z,101165.97
2022-07-30T06:58:30.259Z,101169.97
2022-07-30T07:00:58.301Z,101173.72
2022-07-30T07:03:39.675Z,101174.28
2022-07-30T07:06:09.121Z,101175.63
2022-07-30T07:08:38.291Z,101178.31
2022-07-30T07:11:06.186Z,101176.41
2022-07-30T07:13:35.496Z,101180.81
2022-07-30T07:16:04.178Z,101181.03
2022-07-30T07:18:32.520Z,101179.09
2022-07-30T07:21:00.621Z,101181.09
2022-07-30T07:23:41.823Z,101185.53
2022-07-30T07:26:11.649Z,101174.13
2022-07-30T07:28:41.346Z,101172.94
2022-07-30T07:31:10.202Z,101167.84
2022-07-30T07:33:39.479Z,101170.00
2022-07-30T07:36:08.013Z,101186.03
2022-07-30T07:38:36.800Z,101182.84
2022-07-30T07:41:05.404Z,101178.63
2022-07-30T07:43:33.775Z,101173.91
2022-07-30T07:46:03.082Z,101173.56
2022-07-30T07:48:31.387Z,101179.94
2022-07-30T07:51:00.484Z,101182.28
2022-07-30T07:53:29.062Z,101183.31
2022-07-30T07:55:57.447Z,101177.69
2022-07-30T07:58:26.611Z,101181.69
2022-07-30T08:00:55.545Z,101185.88
2022-07-30T08:03:24.944Z,101183.91
2022-07-30T08:05:58.153Z,101183.34
2022-07-30T08:08:36.628Z,101182.53
2022-07-30T08:11:06.553Z,101177.34
2022-07-30T08:13:49.061Z,101183.28
2022-07-30T08:16:20.462Z,101183.63
2022-07-30T08:18:50.084Z,101181.69
2022-07-30T08:21:18.169Z,101182.00
2022-07-30T08:23:46.279Z,101182.75
2022-07-30T08:26:14.292Z,101174.94
2022-07-30T08:28:43.103Z,101180.22
2022-07-30T08:31:11.225Z,101162.97
2022-07-30T08:33:39.019Z,101161.28
2022-07-30T08:36:09.857Z,101177.09
2022-07-30T08:38:39.248Z,101172.22
2022-07-30T08:41:07.639Z,101171.47
2022-07-30T08:43:37.628Z,101170.44
2022-07-30T08:46:11.023Z,101180.53
2022-07-30T08:48:39.481Z,101177.47
2022-07-30T08:51:09.910Z,101175.97
2022-07-30T08:53:38.022Z,101183.34
2022-07-30T08:56:08.582Z,101170.75
2022-07-30T08:58:36.563Z,101182.94
2022-07-30T09:01:06.849Z,101188.81
2022-07-30T09:03:36.512Z,101179.16
2022-07-30T09:06:13.637Z,101180.22
2022-07-30T09:08:41.775Z,101166.34
2022-07-30T09:11:09.851Z,101168.88
2022-07-30T09:13:41.690Z,101169.84
2022-07-30T09:16:21.809Z,101176.16
2022-07-30T09:18:50.885Z,101165.56
2022-07-30T09:21:24.154Z,101184.22
2022-07-30T09:24:00.513Z,101178.72
2022-07-30T09:26:29.649Z,101172.03
2022-07-30T09:29:16.499Z,101171.81
2022-07-30T09:31:55.820Z,101168.19
2022-07-30T09:34:32.849Z,101163.25
2022-07-30T09:37:05.243Z,101159.34
2022-07-30T09:39:35.554Z,101162.31
2022-07-30T09:42:05.772Z,101169.75
2022-07-30T09:44:34.066Z,101162.50
2022-07-30T09:47:02.887Z,101159.53
2022-07-30T09:49:31.604Z,101162.97
2022-07-30T09:52:01.113Z,101167.75
2022-07-30T09:54:51.580Z,101166.00
2022-07-30T09:57:26.010Z,101169.34
2022-07-30T09:59:57.549Z,101166.47
2022-07-30T10:02:35.389Z,101172.25
2022-07-30T10:05:19.133Z,101177.81
2022-07-30T10:07:56.329Z,101162.38
2022-07-30T10:10:27.638Z,101169.09
2022-07-30T10:13:01.104Z,101164.75
2022-07-30T10:15:35.672Z,101166.44
2022-07-30T10:18:06.692Z,101166.75
2022-07-30T10:20:37.648Z,101164.06
2022-07-30T10:23:10.876Z,101160.53
2022-07-30T10:25:49.071Z,101164.75
2022-07-30T10:28:22.943Z,101167.25
2022-07-30T10:30:53.350Z,101162.31
2022-07-30T10:33:36.334Z,101159.19
2022-07-30T10:36:12.079Z,101168.13
2022-07-30T10:38:44.764Z,101157.19
2022-07-30T10:41:42.829Z,101160.47
2022-07-30T10:44:51.814Z,101158.63
2022-07-30T10:47:23.704Z,101162.03
2022-07-30T10:50:11.577Z,101151.53
2022-07-30T10:52:52.050Z,101157.38
2022-07-30T10:55:32.865Z,101152.06
2022-07-30T10:58:09.870Z,101147.22
2022-07-30T11:01:01.569Z,101149.91
2022-07-30T11:03:41.558Z,101157.50
2022-07-30T11:06:29.647Z,101150.22
2022-07-30T11:08:58.162Z,101161.84
2022-07-30T11:12:01.161Z,101151.03
2022-07-30T11:14:58.373Z,101147.78
2022-07-30T11:18:01.002Z,101141.19
2022-07-30T11:20:29.685Z,101138.34
2022-07-30T11:23:26.255Z,101146.00
2022-07-30T11:25:55.024Z,101134.38
2022-07-30T11:28:40.375Z,101135.75
2022-07-30T11:31:37.218Z,101138.56
2022-07-30T11:34:30.739Z,101147.22
2022-07-30T11:37:18.534Z,101141.22
2022-07-30T11:40:11.378Z,101134.69
2022-07-30T11:42:43.518Z,101133.94
2022-07-30T11:45:27.031Z,101134.09
2022-07-30T11:48:00.207Z,101135.03
2022-07-30T11:50:32.281Z,101135.69
2022-07-30T11:53:03.209Z,101132.75
2022-07-30T11:55:33.599Z,101125.69
2022-07-30T11:58:04.345Z,101136.72
2022-07-30T12:00:40.643Z,101140.81
2022-07-30T12:03:11.749Z,101140.44
2022-07-30T12:05:40.473Z,101136.22
2022-07-30T12:08:08.709Z,101148.50
2022-07-30T12:10:59.700Z,101143.75
2022-07-30T12:13:44.527Z,101149.53
2022-07-30T12:16:18.009Z,101139.59
2022-07-30T12:18:47.313Z,101133.25
2022-07-30T12:21:16.784Z,101130.63
2022-07-30T12:23:55.034Z,101134.56
2022-07-30T12:26:24.658Z,101141.19
2022-07-30T12:28:56.151Z,101137.34
2022-07-30T12:31:26.407Z,101135.84
2022-07-30T12:33:56.309Z,101135.94
2022-07-30T12:36:31.269Z,101139.56
2022-07-30T12:39:00.460Z,101145.38
2022-07-30T12:41:47.128Z,101145.41
2022-07-30T12:44:38.304Z,101137.38
2022-07-30T12:47:20.801Z,101129.53
2022-07-30T12:49:50.317Z,101131.19
2022-07-30T12:52:28.272Z,101132.66
2022-07-30T12:55:08.721Z,101132.84
2022-07-30T12:57:54.830Z,101123.75
2022-07-30T13:00:24.075Z,101126.28
2022-07-30T13:02:53.552Z,101126.19
2022-07-30T13:05:22.021Z,101127.78
2022-07-30T13:07:59.134Z,101134.31
2022-07-30T13:10:31.133Z,101127.94
2022-07-30T13:12:59.762Z,101130.41
2022-07-30T13:15:27.946Z,101127.25
2022-07-30T13:17:57.181Z,101132.94
2022-07-30T13:20:25.058Z,101125.34
2022-07-30T13:22:52.883Z,101135.00
2022-07-30T13:25:20.773Z,101121.00
2022-07-30T13:27:49.051Z,101130.66
2022-07-30T13:30:16.902Z,101124.09
2022-07-30T13:32:44.744Z,101122.38
2022-07-30T13:35:13.918Z,101120.53
2022-07-30T13:37:41.790Z,101120.78
2022-07-30T13:40:11.453Z,101113.53
2022-07-30T13:42:39.316Z,101121.28
2022-07-30T13:45:09.654Z,101129.38
2022-07-30T13:47:37.634Z,101114.28
2022-07-30T13:50:06.792Z,101113.16
2022-07-30T13:52:36.067Z,101110.38
2022-07-30T13:55:03.944Z,101099.88
2022-07-30T13:57:31.784Z,101107.19
2022-07-30T13:59:59.571Z,101090.34
2022-07-30T14:02:27.901Z,101107.53
2022-07-30T14:04:55.992Z,101110.09
2022-07-30T14:07:24.002Z,101106.50
2022-07-30T14:09:54.632Z,101108.28
2022-07-30T14:12:22.672Z,101107.81
2022-07-30T14:14:50.514Z,101104.84
2022-07-30T14:17:18.490Z,101107.91
2022-07-30T14:19:47.146Z,101106.34
2022-07-30T14:22:15.059Z,101098.50
2022-07-30T14:24:42.970Z,101102.09
2022-07-30T14:27:12.128Z,101110.03
2022-07-30T14:29:40.083Z,101095.09
2022-07-30T14:32:08.021Z,101102.03
2022-07-30T14:34:35.941Z,101098.84
2022-07-30T14:37:04.290Z,101089.63
2022-07-30T14:39:32.548Z,101101.09
2022-07-30T14:42:00.398Z,101101.16
2022-07-30T14:44:29.603Z,101097.09
2022-07-30T14:46:57.469Z,101109.44
2022-07-30T14:49:25.449Z,101102.34
2022-07-30T14:51:53.775Z,101112.88
2022-07-30T14:54:22.345Z,101114.25
2022-07-30T14:56:54.887Z,101108.00
2022-07-30T14:59:26.546Z,101104.81
2022-07-30T15:01:56.096Z,101105.38
2022-07-30T15:04:24.242Z,101108.91
2022-07-30T15:06:52.120Z,101128.66
2022-07-30T15:09:20.709Z,101112.59
2022-07-30T15:12:07.972Z,101110.22
2022-07-30T15:14:39.987Z,101109.94
2022-07-30T15:17:09.732Z,101118.81
2022-07-30T15:19:37.565Z,101115.88
2022-07-30T15:22:18.258Z,101103.22
2022-07-30T15:24:46.079Z,101100.19
2022-07-30T15:27:14.087Z,101102.25
2022-07-30T15:29:41.949Z,101089.34
2022-07-30T15:32:11.241Z,101103.13
2022-07-30T15:34:39.219Z,101104.13
2022-07-30T15:37:07.146Z,101100.53
2022-07-30T15:39:35.853Z,101107.66
2022-07-30T15:42:06.146Z,101102.84
2022-07-30T15:44:35.197Z,101108.00
2022-07-30T15:47:03.025Z,101099.41
2022-07-30T15:49:32.311Z,101098.09
2022-07-30T15:52:01.797Z,101106.81
2022-07-30T15:54:29.868Z,101094.81
2022-07-30T15:57:01.089Z,101102.81
2022-07-30T15:59:29.989Z,101101.00
2022-07-30T16:01:58.945Z,101105.09
2022-07-30T16:04:31.325Z,101103.56
2022-07-30T16:07:01.649Z,101099.19
2022-07-30T16:09:29.797Z,101089.56
2022-07-30T16:11:58.278Z,101091.28
2022-07-30T16:14:27.049Z,101093.25
2022-07-30T16:16:54.989Z,101093.16
2022-07-30T16:19:23.013Z,101100.84
2022-07-30T16:21:50.997Z,101099.97
2022-07-30T16:24:20.398Z,101097.34
2022-07-30T16:26:48.327Z,101098.44
2022-07-30T16:29:16.199Z,101094.31
2022-07-30T16:31:44.196Z,101084.44
2022-07-30T16:34:12.224Z,101102.50
2022-07-30T16:36:40.119Z,101098.16
2022-07-30T16:39:08.233Z,101104.00
2022-07-30T16:41:38.356Z,101103.88
2022-07-30T16:44:06.537Z,101114.41
2022-07-30T16:46:34.425Z,101101.94
2022-07-30T16:49:02.388Z,101115.69
2022-07-30T16:51:30.682Z,101104.63
2022-07-30T16:53:58.541Z,101108.88
2022-07-30T16:56:26.508Z,101116.47
2022-07-30T16:58:55.717Z,101118.16
2022-07-30T17:01:23.720Z,101105.56
2022-07-30T17:03:51.624Z,101112.31
2022-07-30T17:06:19.654Z,101114.41
2022-07-30T17:08:47.634Z,101109.78
2022-07-30T17:11:47.426Z,101105.00
2022-07-30T17:14:06.400Z,101124.41
2022-07-30T17:16:34.305Z,101112.91
2022-07-30T17:19:09.247Z,101112.13
2022-07-30T17:21:38.949Z,101113.88
2022-07-30T17:24:11.305Z,101118.16
2022-07-30T17:26:42.807Z,101119.66
2022-07-30T17:29:14.667Z,101122.25
2022-07-30T17:31:44.509Z,101125.34
2022-07-30T17:34:14.545Z,101124.50
2022-07-30T17:36:52.662Z,101128.63
2022-07-30T17:40:26.985Z,101127.50
2022-07-30T17:42:10.717Z,101125.44
2022-07-30T17:44:42.034Z,101130.31
2022-07-30T17:47:15.169Z,101127.63
2022-07-30T17:49:44.886Z,101143.78
2022-07-30T17:52:13.059Z,101136.16
2022-07-30T17:54:41.273Z,101136.56
2022-07-30T17:57:10.345Z,101141.59
2022-07-30T17:59:38.365Z,101135.28
2022-07-30T18:02:08.184Z,101134.78
2022-07-30T18:04:36.593Z,101125.19
2022-07-30T18:07:05.263Z,101134.53
2022-07-30T18:09:39.269Z,101137.81
2022-07-30T18:12:09.490Z,101137.22
2022-07-30T18:14:38.685Z,101143.50
2022-07-30T18:17:12.439Z,101138.81
2022-07-30T18:19:42.246Z,101131.44
2022-07-30T18:22:10.431Z,101136.91
2022-07-30T18:24:43.961Z,101148.91
2022-07-30T18:27:13.006Z,101144.50
2022-07-30T18:29:41.209Z,101150.06
2022-07-30T18:32:11.959Z,101143.06
2022-07-30T18:34:42.925Z,101140.31
2022-07-30T18:37:10.997Z,101141.81
2022-07-30T18:39:38.899Z,101146.00
2022-07-30T18:42:07.912Z,101147.50
2022-07-30T18:44:36.370Z,101142.06
2022-07-30T18:47:04.453Z,101152.50
2022-07-30T18:49:37.055Z,101151.03
2022-07-30T18:52:08.011Z,101165.81
2022-07-30T18:54:38.687Z,101157.19
2022-07-30T18:57:11.261Z,101158.38
2022-07-30T18:59:40.640Z,101159.19
2022-07-30T19:02:08.460Z,101163.31
2022-07-30T19:04:37.874Z,101165.38
2022-07-30T19:07:07.173Z,101169.22
2022-07-30T19:09:35.568Z,101171.38
2022-07-30T19:12:03.981Z,101174.78
2022-07-30T19:14:32.203Z,101174.88
2022-07-30T19:17:00.187Z,101177.13
2022-07-30T19:19:28.915Z,101181.84
2022-07-30T19:21:59.101Z,101180.59
2022-07-30T19:24:28.892Z,101186.75
2022-07-30T19:26:57.999Z,101188.16
2022-07-30T19:29:26.083Z,101189.59
2022-07-30T19:31:55.068Z,101190.59
2022-07-30T19:34:23.263Z,101197.06
2022-07-30T19:36:51.820Z,101199.00
2022-07-30T19:39:22.105Z,101203.84
2022-07-30T19:41:50.953Z,101208.78
2022-07-30T19:44:19.428Z,101204.50
2022-07-30T19:46:48.659Z,101208.97
2022-07-30T19:49:19.837Z,101210.63
2022-07-30T19:52:10.584Z,101205.56
2022-07-30T19:54:41.505Z,101212.53
2022-07-30T19:57:09.522Z,101208.31
2022-07-30T19:59:46.152Z,101208.00
2022-07-30T20:02:27.156Z,101208.84
2022-07-30T20:04:55.889Z,101219.28
2022-07-30T20:07:27.569Z,101215.25
2022-07-30T20:09:57.119Z,101213.69
2022-07-30T20:12:25.209Z,101217.56
2022-07-30T20:14:54.601Z,101212.78
2022-07-30T20:17:23.776Z,101217.03
2022-07-30T20:19:57.962Z,101212.63
2022-07-30T20:22:28.939Z,101215.13
2022-07-30T20:25:07.986Z,101216.03
2022-07-30T20:30:26.012Z,101209.28
2022-07-30T20:32:54.203Z,101213.53
2022-07-30T20:35:26.213Z,101221.66
2022-07-30T20:37:56.310Z,101216.28
2022-07-30T20:40:27.138Z,101217.81
2022-07-30T20:43:00.028Z,101218.13
2022-07-30T20:45:40.267Z,101217.16
2022-07-30T20:48:17.469Z,101221.66
2022-07-30T20:50:53.622Z,101212.84
2022-07-30T20:53:23.425Z,101212.84
2022-07-30T20:55:53.043Z,101220.50
2022-07-30T20:58:22.132Z,101206.13
2022-07-30T21:00:51.727Z,101218.22
2022-07-30T21:03:21.270Z,101215.31
2022-07-30T21:05:51.160Z,101210.25
2022-07-30T21:08:21.373Z,101212.25
2022-07-30T21:10:55.395Z,101201.56
2022-07-30T21:13:26.554Z,101205.13
2022-07-30T21:16:03.043Z,101200.13
2022-07-30T21:18:32.744Z,101201.47
2022-07-30T21:21:04.923Z,101196.69
2022-07-30T21:23:34.344Z,101201.09
2022-07-30T21:26:10.552Z,101198.97
2022-07-30T21:28:43.915Z,101194.59
2022-07-30T21:31:11.964Z,101194.84
2022-07-30T21:33:42.480Z,101202.72
2022-07-30T21:36:11.142Z,101202.06
2022-07-30T21:38:41.861Z,101200.22
2022-07-30T21:41:14.507Z,101202.50
2022-07-30T21:43:44.575Z,101201.19
2022-07-30T21:46:13.086Z,101191.97
2022-07-30T21:48:43.389Z,101207.00
2022-07-30T21:51:13.033Z,101204.44
2022-07-30T21:53:44.914Z,101201.38
2022-07-30T21:56:16.784Z,101199.47
2022-07-30T21:58:45.569Z,101204.91
2022-07-30T22:01:21.720Z,101204.78
2022-07-30T22:04:03.414Z,101206.97
2022-07-30T22:06:41.235Z,101203.72
2022-07-30T22:09:19.565Z,101206.38
2022-07-30T22:12:02.272Z,101210.41
2022-07-30T22:14:37.591Z,101197.97
2022-07-30T22:17:05.956Z,101200.78
2022-07-30T22:19:51.471Z,101197.81
2022-07-30T22:22:26.353Z,101197.00
2022-07-30T22:24:57.313Z,101195.72
2022-07-30T22:27:39.534Z,101189.88
2022-07-30T22:30:13.868Z,101188.09
2022-07-30T22:32:42.874Z,101192.69
2022-07-30T22:35:11.988Z,101190.91
2022-07-30T22:37:44.635Z,101195.91
2022-07-30T22:40:14.149Z,101187.34
2022-07-30T22:42:46.669Z,101191.53
2022-07-30T22:45:46.569Z,101198.19
2022-07-30T22:48:10.046Z,101195.47
2022-07-30T22:50:39.745Z,101200.91
2022-07-30T22:54:03.026Z,101194.38
2022-07-30T22:55:56.092Z,101195.81
2022-07-30T22:58:26.376Z,101190.94
2022-07-30T23:00:55.410Z,101192.22
2022-07-30T23:03:23.451Z,101191.19
2022-07-30T23:05:56.798Z,101191.75
2022-07-30T23:08:30.263Z,101191.75
2022-07-30T23:11:00.170Z,101192.00
2022-07-30T23:12:18.909Z,101210.34
2022-07-30T23:13:29.966Z,101193.31
2022-07-30T23:15:57.998Z,101191.56
2022-07-30T23:18:26.157Z,101189.19
2022-07-30T23:20:58.508Z,101190.47
2022-07-30T23:23:30.883Z,101185.59
2022-07-30T23:26:02.276Z,101187.63
2022-07-30T23:28:31.672Z,101184.03
2022-07-30T23:31:00.199Z,101178.69
2022-07-30T23:33:28.387Z,101177.19
2022-07-30T23:35:56.667Z,101177.22
2022-07-30T23:38:25.289Z,101174.69
2022-07-30T23:40:53.306Z,101171.75
2022-07-30T23:43:21.309Z,101168.94
2022-07-30T23:45:50.590Z,101171.59
2022-07-30T23:48:18.570Z,101176.53
2022-07-30T23:50:46.560Z,101175.63
2022-07-30T23:53:14.874Z,101180.19
2022-07-30T23:55:42.953Z,101181.75
2022-07-30T23:58:10.999Z,101183.22
